Pagina principale
METAR-TAF:

METAR-TAF

Aeroporti :

Aeroporto di Brindisi-Casale

Brindisi, Italia

latitudine: 40-39N, longitudine: 017-57E, altezza: 15 m

Osservazione

Il bollettino è stato emesso 6 ore e 35 minuti fa, alle 05:20 UTC
Vento 8 kt da nord-ovest
Temperature 27°C
Umidità 79%
Pressione 1012 hPa
Visibilità 10 km o più
Nuvoloso ad un'altezza di 1500 ft

METAR: LIBR 210520Z 32008KT 9999 BKN015 27/23 Q1012

Ora: 13:55 (11:55 UTC)

Previsione

Il bollettino è stato emesso 6 ore e 55 minuti fa, alle 05:00 UTC
Previsione valida dal 21 alle 06 UTC al 22 alle 06 UTC
Vento 5 kt da direzioni variabili
Visibilità 10 km o più
Poco nuvoloso ad un'altezza di 4000 ft
Evoluzione graduale
dal 21 alle 08 UTC al 21 alle 10 UTC
Vento 11 kt da nord
Evoluzione graduale
dal 21 alle 16 UTC al 21 alle 18 UTC
Vento 5 kt da direzioni variabili

TAF: LIBR 210500Z 2106/2206 VRB05KT 9999 FEW040 BECMG 2108/2110 01011KT BECMG 2116/2118 VRB05KT

Osservazioni e previsioni meteorologiche di più di 4000 aeroporti (messaggi METAR e TAF).

Le stazioni disponibili sono rappresentate dai dischi gialli e rossi sulla carta.

Puntare il mouse per vedere il nome della stazione.

Clicca sopra per visualizzare le osservazioni e previsioni meteorologiche.

Per cambiare la mappa : fare clic sui pulsanti verdi con una croce nera per ingrandire, il pulsante verde con un trattino per diminuire, o sulla freccia verde per le mappe adiacenti.


METAR-TAF: